Time;durP1;ratioP1;P1;durP2;ratioP2;P2;SDS_P1;SDS_P2;PMS_P1;PMS_P2;Temp;Humidity;BMP_temperature;BMP_pressure;BME280_temperature;BME280_humidity;BME280_pressure;Samples;Min_cycle;Max_cycle;Signal;HPM_P1;HPM_P2
2022/04/04 00:00:17;;;;;;;3.20;0.93;;;;;;;-0.89;100.00;100183.16;5007183;28;20200;-75
2022/04/04 00:02:45;;;;;;;10.13;2.05;;;;;;;-0.87;100.00;100184.13;5010582;28;20212;-74
2022/04/04 00:05:13;;;;;;;9.63;1.92;;;;;;;-0.86;100.00;100177.25;5005159;28;20233;-75
2022/04/04 00:07:41;;;;;;;6.47;1.45;;;-0.60;99.90;;;-0.78;100.00;100186.31;5004333;28;20220;-75
2022/04/04 00:10:09;;;;;;;16.48;3.10;;;;;;;-0.83;100.00;100180.88;5004870;28;20212;-75
2022/04/04 00:12:37;;;;;;;11.65;2.30;;;-0.60;99.90;;;-0.77;100.00;100175.09;5002316;28;20201;-75
2022/04/04 00:15:06;;;;;;;9.82;1.98;;;-0.50;99.90;;;-0.71;100.00;100183.19;5007024;28;20250;-75
2022/04/04 00:17:34;;;;;;;6.57;1.52;;;-0.50;99.90;;;-0.74;100.00;100170.06;5006643;28;20487;-75
2022/04/04 00:20:05;;;;;;;8.50;1.77;;;-0.30;99.90;;;-0.71;100.00;100165.91;4992850;28;20219;-75
2022/04/04 00:22:34;;;;;;;3.10;0.95;;;-0.50;99.90;;;-0.70;100.00;100161.59;4992657;28;20207;-75
2022/04/04 00:25:04;;;;;;;10.10;2.05;;;-0.50;99.90;;;-0.88;100.00;100143.41;5001613;28;20220;-72
2022/04/04 00:27:32;;;;;;;0.88;0.60;;;-0.60;99.90;;;-0.84;100.00;100152.25;5000424;28;20211;-72
2022/04/04 00:30:00;;;;;;;10.93;2.13;;;-0.60;99.90;;;-0.91;100.00;100142.38;5007661;28;20204;-72
2022/04/04 00:32:28;;;;;;;7.70;1.63;;;-0.60;99.90;;;-0.91;100.00;100148.47;4993672;28;20212;-72
2022/04/04 00:34:57;;;;;;;5.72;3.20;;;;;;;-0.83;100.00;100141.94;5009715;28;20231;-72
2022/04/04 00:37:25;;;;;;;14.20;2.72;;;;;;;-0.84;100.00;100139.28;5004026;28;20209;-72
2022/04/04 00:39:53;;;;;;;6.30;1.48;;;-0.80;99.90;;;-0.91;100.00;100130.28;4996631;28;20205;-72
2022/04/04 00:42:21;;;;;;;8.57;1.77;;;;;;;-0.98;100.00;100123.00;4981671;28;20231;-72
2022/04/04 00:44:51;;;;;;;7.28;1.63;;;;;;;-1.09;100.00;100111.22;5006595;28;20223;-72
2022/04/04 00:47:19;;;;;;;15.25;2.88;;;-0.80;99.90;;;-1.01;100.00;100126.34;5001335;28;20207;-72
2022/04/04 00:49:48;;;;;;;17.67;3.20;;;-0.80;99.90;;;-1.00;100.00;100132.44;5009390;28;20822;-72
2022/04/04 00:52:16;;;;;;;12.65;2.47;;;-0.80;99.90;;;-1.11;100.00;100126.69;5010529;28;20215;-72
2022/04/04 00:54:46;;;;;;;12.05;2.42;;;-0.80;99.90;;;-1.12;100.00;100131.81;4999030;28;20235;-71
2022/04/04 00:57:14;;;;;;;17.55;3.35;;;-0.90;99.90;;;-1.22;100.00;100133.06;4991625;28;20209;-72
2022/04/04 00:59:42;;;;;;;4.22;1.10;;;-0.80;99.90;;;-1.13;100.00;100132.63;4992907;28;20211;-72
2022/04/04 01:02:11;;;;;;;5.03;1.20;;;;;;;-0.98;100.00;100144.66;4994296;28;20208;-72
2022/04/04 01:04:39;;;;;;;3.03;1.13;;;-0.90;99.90;;;-0.86;100.00;100148.69;4989807;28;20220;-73
2022/04/04 01:07:07;;;;;;;19.05;3.60;;;;;;;-0.65;99.76;100157.53;5008420;28;20220;-73
2022/04/04 01:09:35;;;;;;;4.38;1.10;;;-0.60;99.90;;;-0.54;98.11;100153.75;4990321;28;20204;-72
2022/04/04 01:12:13;;;;;;;9.70;2.00;;;-0.50;99.90;;;-0.29;96.00;100149.72;5005393;28;20215;-72
2022/04/04 01:14:46;;;;;;;7.90;1.65;;;-0.40;99.90;;;-0.46;94.90;100107.38;5007017;28;20236;-72
2022/04/04 01:17:21;;;;;;;8.82;1.90;;;-0.40;99.90;;;-0.55;94.27;100078.34;5010815;28;20208;-72
2022/04/04 01:19:49;;;;;;;15.48;3.00;;;;;;;-0.60;94.44;100074.66;5002171;28;20211;-72
2022/04/04 01:22:18;;;;;;;6.78;1.50;;;-0.40;99.90;;;-0.74;95.28;100058.41;5008339;28;20257;-72
2022/04/04 01:24:46;;;;;;;4.78;1.17;;;-0.60;99.90;;;-1.01;98.06;100052.78;4993119;28;20220;-72
2022/04/04 01:27:14;;;;;;;23.38;4.18;;;;;;;-1.14;99.58;100058.19;5009566;28;20207;-72
2022/04/04 01:29:43;;;;;;;12.30;2.35;;;;;;;-1.20;100.00;100087.31;5005518;28;20199;-72
2022/04/04 01:32:11;;;;;;;13.38;2.53;;;-1.00;99.90;;;-1.36;100.00;100087.34;4999576;28;20200;-72
2022/04/04 01:34:39;;;;;;;2.10;0.70;;;-0.80;99.90;;;-1.38;100.00;100099.34;5007778;28;20231;-72
2022/04/04 01:37:08;;;;;;;13.23;2.53;;;-1.00;99.90;;;-1.30;100.00;100124.00;5004461;28;20683;-72
2022/04/04 01:39:36;;;;;;;7.35;1.63;;;-0.40;99.90;;;-1.15;100.00;100129.06;5014223;28;20204;-73
2022/04/04 01:42:05;;;;;;;9.55;1.98;;;-0.80;99.90;;;-0.99;100.00;100131.63;5013480;28;20230;-72
2022/04/04 01:44:33;;;;;;;17.20;3.15;;;;;;;-1.25;100.00;100109.56;5011584;28;20234;-72
2022/04/04 01:47:01;;;;;;;4.35;1.10;;;-1.10;99.90;;;-1.31;100.00;100109.22;4980817;28;20581;-72
2022/04/04 01:49:29;;;;;;;5.70;1.30;;;-1.00;99.90;;;-1.37;100.00;100111.50;5014537;28;20669;-73
2022/04/04 01:51:56;;;;;;;11.35;2.30;;;-1.00;99.90;;;-1.40;100.00;100126.91;5013822;28;20207;-72
2022/04/04 01:54:24;;;;;;;2.38;0.80;;;-1.10;99.90;;;-1.51;100.00;100126.34;5014735;28;20236;-72
2022/04/04 01:56:52;;;;;;;5.20;1.30;;;-1.10;99.90;;;-1.57;100.00;100127.72;5010169;28;20209;-73
2022/04/04 01:59:21;;;;;;;6.78;1.55;;;;;;;-1.65;100.00;100135.09;5012941;28;20227;-72
2022/04/04 02:01:49;;;;;;;9.63;1.92;;;;;;;-1.60;100.00;100149.19;5013643;28;20208;-72
2022/04/04 02:04:17;;;;;;;10.65;2.15;;;-1.20;99.90;;;-1.73;100.00;100136.41;5013299;28;20223;-73
2022/04/04 02:06:45;;;;;;;7.20;1.63;;;-1.20;99.90;;;-1.66;100.00;100143.69;5003204;28;20212;-73
2022/04/04 02:09:13;;;;;;;6.32;1.45;;;;;;;-1.63;100.00;100149.94;5010738;28;20204;-72
2022/04/04 02:11:42;;;;;;;5.88;1.50;;;-1.20;99.90;;;-1.71;100.00;100143.47;5015536;28;20200;-73
2022/04/04 02:14:10;;;;;;;4.60;1.15;;;-1.40;99.90;;;-1.71;100.00;100163.31;4997169;28;20232;-73
2022/04/04 02:16:38;;;;;;;5.18;1.30;;;-1.30;99.90;;;-1.72;100.00;100152.03;5015096;28;20211;-72
2022/04/04 02:19:06;;;;;;;5.13;1.25;;;;;;;-1.73;100.00;100155.44;5014439;28;20200;-72
2022/04/04 02:21:34;;;;;;;6.47;1.50;;;;;;;-1.50;100.00;100168.72;5015517;28;20207;-73
2022/04/04 02:24:03;;;;;;;7.53;1.70;;;;;;;-1.57;100.00;100153.66;4997885;28;20230;-73
2022/04/04 02:26:31;;;;;;;15.43;2.88;;;-1.30;99.90;;;-1.63;100.00;100152.53;5012150;28;20211;-73
2022/04/04 02:28:59;;;;;;;9.30;1.90;;;-1.30;99.90;;;-1.62;100.00;100148.22;5012493;28;20204;-72
2022/04/04 02:31:27;;;;;;;3.67;1.08;;;-1.10;99.90;;;-1.54;100.00;100161.59;4996466;28;20219;-72
2022/04/04 02:33:55;;;;;;;16.08;2.97;;;-1.10;99.90;;;-1.58;100.00;100152.78;5011899;28;20227;-72
2022/04/04 02:36:23;;;;;;;11.50;2.33;;;-1.50;99.90;;;-1.62;100.00;100156.00;5009507;28;20227;-72
2022/04/04 02:38:52;;;;;;;8.32;1.75;;;;;;;-1.86;100.00;100146.94;5011931;28;20219;-73
2022/04/04 02:41:19;;;;;;;7.10;1.50;;;-1.40;99.90;;;-1.90;100.00;100158.84;5012867;28;20203;-73
2022/04/04 02:43:47;;;;;;;12.48;2.38;;;-1.70;99.90;;;-1.93;100.00;100163.84;5007731;28;20239;-73
2022/04/04 02:46:15;;;;;;;16.08;3.05;;;-1.50;99.90;;;-1.95;100.00;100171.53;5012014;28;20219;-72
2022/04/04 02:48:44;;;;;;;9.52;1.92;;;;;;;-1.86;100.00;100183.22;5009311;28;20207;-72
2022/04/04 02:51:12;;;;;;;11.32;2.25;;;;;;;-2.08;100.00;100155.25;5008570;28;20208;-72
2022/04/04 02:53:41;;;;;;;10.90;2.20;;;;;;;-2.12;100.00;100166.25;5009081;28;20232;-72
2022/04/04 02:59:00;;;;;;;6.82;1.45;;;-1.60;99.90;;;-2.15;100.00;100186.81;5008536;28;20205;-72
2022/04/04 03:01:29;;;;;;;7.65;1.65;;;-1.80;99.90;;;-2.12;100.00;100182.69;5012164;28;20208;-71
2022/04/04 03:03:58;;;;;;;10.55;2.10;;;-1.70;99.90;;;-2.05;100.00;100197.75;4994677;28;20240;-72
2022/04/04 03:06:26;;;;;;;14.88;2.83;;;-1.60;99.90;;;-2.07;100.00;100193.31;5011917;28;20204;-72
2022/04/04 03:08:55;;;;;;;11.88;2.30;;;-1.80;99.90;;;-2.03;100.00;100198.75;5011041;28;20204;-72
2022/04/04 03:11:24;;;;;;;11.30;2.30;;;;;;;-2.06;100.00;100201.16;5010128;28;20207;-72
2022/04/04 03:13:52;;;;;;;16.75;3.05;;;-2.00;99.90;;;-2.00;100.00;100200.59;5009763;28;20235;-72
2022/04/04 03:16:21;;;;;;;10.05;2.08;;;;;;;-2.03;100.00;100210.81;5008139;28;20231;-72
2022/04/04 03:18:48;;;;;;;9.00;1.85;;;-1.90;99.90;;;-2.06;100.00;100210.63;5007633;28;20203;-72
2022/04/04 03:21:16;;;;;;;10.93;2.17;;;-1.80;99.90;;;-2.05;100.00;100209.81;5007111;28;20216;-72
2022/04/04 03:23:45;;;;;;;15.25;2.88;;;;;;;-1.99;100.00;100212.75;5001174;28;20227;-72
2022/04/04 03:26:13;;;;;;;13.27;2.55;;;;;;;-2.00;100.00;100208.38;5004884;28;20208;-72
2022/04/04 03:28:41;;;;;;;14.65;2.75;;;-1.70;99.90;;;-1.87;100.00;100228.09;5009885;28;20574;-72
2022/04/04 03:31:10;;;;;;;7.80;1.67;;;-1.70;99.90;;;-1.92;100.00;100211.41;5009006;28;20231;-73
2022/04/04 03:33:39;;;;;;;10.80;2.13;;;;;;;-1.84;100.00;100220.47;5010561;28;20231;-73
2022/04/04 03:36:07;;;;;;;12.98;2.50;;;-1.50;99.90;;;-1.92;100.00;100221.75;5010015;28;20249;-73
2022/04/04 03:38:35;;;;;;;8.13;1.73;;;-1.70;99.90;;;-1.96;100.00;100215.50;4994622;28;20211;-73
2022/04/04 03:41:03;;;;;;;7.10;1.55;;;-1.80;99.90;;;-2.03;100.00;100210.81;4994868;28;20208;-74
2022/04/04 03:43:32;;;;;;;12.32;2.38;;;;;;;-2.09;100.00;100206.19;5010111;28;20216;-74
2022/04/04 03:46:00;;;;;;;8.63;1.88;;;;;;;-2.00;100.00;100216.16;5012189;28;20208;-73
2022/04/04 03:48:28;;;;;;;5.75;1.33;;;-1.80;99.90;;;-2.13;100.00;100205.94;5012312;28;20204;-74
2022/04/04 03:50:56;;;;;;;6.97;1.67;;;-1.70;99.90;;;-2.07;100.00;100209.75;5012974;28;20204;-74
2022/04/04 03:53:25;;;;;;;7.97;1.65;;;-1.90;99.90;;;-2.12;100.00;100211.19;5013235;28;20208;-74
2022/04/04 03:55:53;;;;;;;9.70;1.98;;;-1.80;99.90;;;-2.12;100.00;100215.47;5012621;28;20234;-73
2022/04/04 03:58:21;;;;;;;13.13;2.50;;;-1.80;99.90;;;-2.08;100.00;100218.31;5011272;28;20248;-74
2022/04/04 04:00:49;;;;;;;9.20;1.90;;;-1.90;99.90;;;-2.19;100.00;100208.16;4995487;28;20210;-73
2022/04/04 04:03:17;;;;;;;10.77;2.10;;;-1.90;99.90;;;-2.15;100.00;100218.78;5010975;28;20586;-73
2022/04/04 04:05:46;;;;;;;16.08;2.97;;;;;;;-2.12;100.00;100223.25;5004395;28;20212;-74
2022/04/04 04:08:14;;;;;;;12.27;2.42;;;-1.90;99.90;;;-2.12;100.00;100223.25;5006919;28;20204;-74
2022/04/04 04:10:42;;;;;;;10.50;2.05;;;-1.70;99.90;;;-2.16;100.00;100224.78;5004799;28;20212;-74
2022/04/04 04:13:10;;;;;;;8.48;1.80;;;;;;;-2.17;100.00;100228.16;4993164;28;20292;-74
2022/04/04 04:15:38;;;;;;;14.55;2.75;;;-2.00;99.90;;;-2.21;100.00;100227.91;5012228;28;20232;-74
2022/04/04 04:18:06;;;;;;;5.97;1.40;;;;;;;-2.19;100.00;100228.91;5009875;28;20208;-74
2022/04/04 04:20:35;;;;;;;7.55;1.70;;;-1.80;99.90;;;-2.16;100.00;100226.47;5011750;28;20221;-74
2022/04/04 04:23:07;;;;;;;6.93;1.60;;;-1.90;99.90;;;-2.14;100.00;100227.47;5010926;28;20203;-74
2022/04/04 04:25:37;;;;;;;6.20;1.40;;;-1.90;99.90;;;-2.18;100.00;100233.28;5005311;28;20226;-74
2022/04/04 04:28:06;;;;;;;10.85;2.15;;;-1.90;99.90;;;-2.24;100.00;100227.75;5007259;28;20201;-74
2022/04/04 04:30:34;;;;;;;15.18;2.90;;;-1.90;99.90;;;-2.24;100.00;100223.47;5009214;28;20215;-73
2022/04/04 04:33:03;;;;;;;35.05;6.13;;;-1.90;99.90;;;-2.29;100.00;100217.13;5009262;28;20680;-74
2022/04/04 04:35:31;;;;;;;12.27;2.40;;;-1.90;99.90;;;-2.29;100.00;100222.31;5009633;28;20232;-75
2022/04/04 04:38:00;;;;;;;10.43;2.13;;;-2.10;99.90;;;-2.33;100.00;100220.34;5009032;28;20207;-74
2022/04/04 04:40:29;;;;;;;13.43;2.65;;;;;;;-2.28;100.00;100224.97;4979387;28;20192;-74
2022/04/04 04:42:58;;;;;;;13.43;2.67;;;-2.00;99.90;;;-2.31;100.00;100221.31;5007822;28;20664;-73
2022/04/04 04:45:27;;;;;;;7.25;1.63;;;-2.10;99.90;;;-2.37;100.00;100226.16;5009632;28;20715;-72
2022/04/04 04:47:55;;;;;;;14.88;2.83;;;;;;;-2.35;100.00;100227.13;5011066;28;20204;-72
2022/04/04 04:50:24;;;;;;;6.63;1.58;;;-2.00;99.90;;;-2.28;100.00;100232.75;4993887;28;20216;-72
2022/04/04 04:52:52;;;;;;;11.07;2.20;;;;;;;-2.30;100.00;100234.38;5011353;28;20211;-72
2022/04/04 04:55:22;;;;;;;5.80;1.40;;;-2.00;99.90;;;-2.22;100.00;100250.34;5008495;28;20220;-72
2022/04/04 04:57:53;;;;;;;7.15;1.60;;;-2.00;99.90;;;-2.23;100.00;100245.97;5010940;28;20235;-72
2022/04/04 05:00:26;;;;;;;15.60;2.92;;;-2.00;99.90;;;-2.21;100.00;100249.53;5009775;28;20210;-72
2022/04/04 05:03:39;;;;;;;13.18;2.55;;;-2.00;99.90;;;-2.22;100.00;100242.56;5008265;28;20212;-73
2022/04/04 05:05:47;;;;;;;15.02;2.97;;;;;;;-2.26;100.00;100238.91;4996941;28;20207;-72
2022/04/04 05:08:15;;;;;;;5.95;1.40;;;-2.00;99.90;;;-2.24;100.00;100239.00;5008397;28;20219;-73
2022/04/04 05:10:43;;;;;;;6.50;1.48;;;-2.00;99.90;;;-2.35;100.00;100228.03;5010185;28;20212;-73
2022/04/04 05:13:11;;;;;;;8.93;1.92;;;-2.00;99.90;;;-2.28;100.00;100230.16;4993152;28;20204;-73
2022/04/04 05:15:40;;;;;;;13.85;2.70;;;-2.00;99.90;;;-2.27;100.00;100237.13;5009772;28;20218;-73
2022/04/04 05:18:08;;;;;;;9.40;2.00;;;-2.00;99.90;;;-2.21;100.00;100246.06;4986302;28;20204;-73
2022/04/04 05:20:37;;;;;;;12.00;2.35;;;;;;;-2.22;100.00;100239.97;4975680;28;20215;-73
2022/04/04 05:23:05;;;;;;;11.73;2.33;;;-2.00;99.90;;;-2.24;100.00;100244.19;4990944;28;20208;-73
2022/04/04 05:25:33;;;;;;;7.18;1.55;;;;;;;-2.19;100.00;100257.38;5004727;28;20220;-73
2022/04/04 05:28:02;;;;;;;12.02;2.35;;;;;;;-2.19;100.00;100249.63;4992585;28;20200;-75
2022/04/04 05:30:30;;;;;;;10.02;2.08;;;;;;;-2.12;100.00;100262.09;4993053;28;20203;-73
2022/04/04 05:32:59;;;;;;;8.63;1.80;;;;;;;-2.08;100.00;100267.53;5008040;28;20208;-74
2022/04/04 05:35:27;;;;;;;7.43;1.65;;;-1.90;99.90;;;-2.04;100.00;100282.47;4993208;28;20222;-74
2022/04/04 05:37:55;;;;;;;6.13;1.45;;;-1.90;99.90;;;-2.03;100.00;100278.16;4992734;28;20227;-75
2022/04/04 05:40:24;;;;;;;14.52;2.83;;;-1.80;99.90;;;-2.01;100.00;100284.34;5011254;28;20196;-74
2022/04/04 05:42:54;;;;;;;14.02;2.70;;;-1.80;99.90;;;-1.96;100.00;100286.38;5010175;28;20222;-73
2022/04/04 05:45:22;;;;;;;14.07;2.75;;;;;;;-1.89;100.00;100292.78;5009045;28;20231;-73
2022/04/04 05:47:51;;;;;;;14.50;2.70;;;;;;;-1.83;100.00;100302.59;5008446;28;20204;-73
2022/04/04 05:50:20;;;;;;;11.63;2.30;;;;;;;-1.70;100.00;100323.22;5010259;28;20207;-74
2022/04/04 05:52:48;;;;;;;14.07;2.80;;;;;;;-1.63;100.00;100328.84;5004517;28;20210;-73
2022/04/04 05:55:17;;;;;;;11.68;2.35;;;;;;;-1.58;100.00;100333.38;5010083;28;20224;-74
2022/04/04 05:57:46;;;;;;;13.73;2.60;;;;;;;-1.50;100.00;100338.19;5001682;28;20234;-73
2022/04/04 06:00:15;;;;;;;12.13;2.38;;;-1.40;99.90;;;-1.51;100.00;100339.00;5010457;28;20215;-73
2022/04/04 06:02:45;;;;;;;14.63;2.75;;;-1.30;99.90;;;-1.37;100.00;100363.09;5010018;28;20200;-73
2022/04/04 06:05:13;;;;;;;7.40;2.90;;;-1.30;99.90;;;-1.31;100.00;100363.44;5008738;28;20224;-73
2022/04/04 06:07:42;;;;;;;12.98;2.47;;;-1.20;99.90;;;-1.30;100.00;100363.53;5009566;28;20219;-73
2022/04/04 06:10:13;;;;;;;14.38;2.75;;;-1.20;99.90;;;-1.22;100.00;100356.19;5009025;28;20196;-73
2022/04/04 06:12:44;;;;;;;12.90;2.45;;;;;;;-1.13;100.00;100367.06;5010011;28;20223;-72
2022/04/04 06:15:12;;;;;;;10.18;2.03;;;-1.20;99.90;;;-1.10;100.00;100368.91;5009219;28;20223;-73
2022/04/04 06:17:41;;;;;;;15.00;2.80;;;;;;;-1.10;100.00;100356.84;5008678;28;20243;-73
2022/04/04 06:20:09;;;;;;;12.38;2.35;;;;;;;-1.03;100.00;100358.06;5010166;28;20208;-73
2022/04/04 06:22:40;;;;;;;13.43;2.53;;;-0.90;99.90;;;-0.93;100.00;100365.53;4991989;28;20203;-73
2022/04/04 06:25:14;;;;;;;12.15;2.40;;;-0.80;99.90;;;-0.86;100.00;100372.84;5013723;28;20220;-73
2022/04/04 06:27:42;;;;;;;8.80;1.80;;;-0.70;99.90;;;-0.70;100.00;100383.22;5013134;28;20212;-73
2022/04/04 06:30:11;;;;;;;3.65;1.08;;;-0.60;99.90;;;-0.65;100.00;100386.06;5012558;28;20208;-73
2022/04/04 06:32:41;;;;;;;1.30;0.68;;;-0.60;99.90;;;-0.60;100.00;100370.72;5013254;28;20608;-73
2022/04/04 06:35:11;;;;;;;9.05;1.90;;;-0.70;99.90;;;-0.48;100.00;100386.94;4999316;28;20238;-73
2022/04/04 06:37:40;;;;;;;19.13;3.58;;;-0.40;99.90;;;-0.41;100.00;100382.13;4997462;28;20232;-74
2022/04/04 06:40:09;;;;;;;10.25;2.10;;;-0.30;99.90;;;-0.29;100.00;100380.97;4996119;28;20208;-75
2022/04/04 06:42:41;;;;;;;16.48;3.42;;;-0.20;99.90;;;-0.18;100.00;100391.09;5012625;28;20220;-74
2022/04/04 06:45:12;;;;;;;8.40;1.83;;;-0.30;99.90;;;-0.11;100.00;100400.09;5013186;28;20227;-74
2022/04/04 06:47:39;;;;;;;8.00;1.67;;;0.00;99.90;;;0.02;100.00;100386.94;4995980;28;20204;-79
2022/04/04 06:50:08;;;;;;;7.18;1.73;;;;;;;0.12;100.00;100393.50;4996269;28;20575;-73
2022/04/04 06:52:37;;;;;;;7.68;1.63;;;0.10;99.90;;;0.25;100.00;100395.88;5014387;28;20204;-73
2022/04/04 06:55:25;;;;;;;4.55;1.17;;;0.00;99.90;;;0.38;100.00;100402.59;4992915;28;20219;-73
2022/04/04 06:57:53;;;;;;;7.80;1.77;;;0.50;99.90;;;0.46;100.00;100396.94;5011092;28;20224;-73
2022/04/04 07:00:22;;;;;;;9.32;1.88;;;0.50;99.90;;;0.50;100.00;100384.97;5013377;28;20200;-78
2022/04/04 07:02:50;;;;;;;8.40;2.00;;;;;;;0.66;100.00;100387.47;5014095;28;20204;-73
2022/04/04 07:05:19;;;;;;;6.10;1.45;;;;;;;0.67;100.00;100378.84;5013572;28;20227;-74
2022/04/04 07:07:46;;;;;;;5.57;1.38;;;0.70;99.90;;;0.73;100.00;100373.94;5013017;28;20209;-75
2022/04/04 07:10:14;;;;;;;10.55;2.15;;;0.80;99.90;;;0.78;100.00;100367.22;5013122;28;20208;-73
2022/04/04 07:12:42;;;;;;;5.18;1.20;;;0.90;99.90;;;0.90;100.00;100365.19;4995946;28;20227;-73
2022/04/04 07:15:11;;;;;;;9.65;1.95;;;0.90;99.90;;;0.95;100.00;100361.09;5013011;28;20753;-73
2022/04/04 07:17:41;;;;;;;3.42;1.15;;;1.00;99.90;;;1.07;100.00;100360.75;5013036;28;20239;-73
2022/04/04 07:20:10;;;;;;;15.05;2.85;;;1.10;99.90;;;1.14;100.00;100344.59;5005424;28;20215;-73
2022/04/04 07:22:41;;;;;;;25.88;4.55;;;1.20;99.90;;;1.24;100.00;100336.38;5004947;28;20231;-73
2022/04/04 07:25:11;;;;;;;19.45;3.53;;;1.30;99.90;;;1.37;100.00;100345.66;4986250;28;20219;-75
2022/04/04 07:27:43;;;;;;;9.48;1.98;;;1.30;99.90;;;1.53;100.00;100345.50;4993157;28;20208;-74
2022/04/04 07:30:17;;;;;;;25.75;4.50;;;1.50;99.90;;;1.70;100.00;100340.13;4999512;28;20222;-73
2022/04/04 07:32:48;;;;;;;27.50;4.80;;;1.60;99.90;;;1.83;100.00;100342.41;5001016;28;20212;-73
2022/04/04 07:35:18;;;;;;;16.45;3.10;;;1.70;99.90;;;2.02;100.00;100344.97;4994499;28;20227;-73
2022/04/04 07:37:49;;;;;;;14.88;2.75;;;1.90;99.90;;;2.29;100.00;100346.91;5002880;28;20235;-73
2022/04/04 07:40:20;;;;;;;24.00;4.22;;;2.30;99.90;;;2.29;100.00;100319.09;5005058;28;20196;-74
2022/04/04 07:42:49;;;;;;;24.17;4.40;;;;;;;2.31;99.88;100293.97;5010333;28;20219;-79
2022/04/04 07:45:17;;;;;;;25.42;4.47;;;;;;;2.68;100.00;100316.31;4996968;28;20224;-78
2022/04/04 07:47:47;;;;;;;24.50;4.38;;;2.40;99.90;;;2.65;97.46;100269.22;4997949;28;20219;-75
2022/04/04 07:50:15;;;;;;;17.20;3.42;;;;;;;2.77;96.00;100259.22;5004445;28;20566;-76
2022/04/04 07:52:43;;;;;;;22.98;4.15;;;2.80;99.90;;;3.04;94.36;100254.13;5004568;28;20227;-74
2022/04/04 07:55:12;;;;;;;16.95;3.22;;;;;;;3.13;93.81;100238.78;5001780;28;20246;-76
2022/04/04 07:57:41;;;;;;;20.92;3.75;;;;;;;3.23;92.46;100222.56;5002546;28;20219;-75
2022/04/04 08:00:14;;;;;;;23.88;4.30;;;3.10;99.90;;;3.35;91.20;100209.03;5006035;28;20203;-77
2022/04/04 08:02:43;;;;;;;18.27;3.30;;;3.20;99.90;;;3.56;90.46;100198.41;5000083;28;20208;-75
2022/04/04 08:05:11;;;;;;;24.70;4.38;;;3.30;99.90;;;3.60;90.03;100184.59;4986324;28;20228;-75
2022/04/04 08:07:40;;;;;;;11.63;2.28;;;;;;;3.57;89.75;100174.06;5006281;28;20215;-78
2022/04/04 08:10:09;;;;;;;9.63;1.90;;;;;;;3.81;89.94;100190.53;5002957;28;20215;-75
2022/04/04 08:12:37;;;;;;;12.98;2.47;;;;;;;4.06;89.62;100202.69;4990157;28;20219;-78
2022/04/04 08:15:05;;;;;;;12.35;2.30;;;3.80;99.90;;;3.96;85.99;100125.66;4999472;28;20228;-74
2022/04/04 08:17:33;;;;;;;15.63;3.00;;;;;;;4.24;85.98;100147.41;4996782;28;20232;-76
2022/04/04 08:20:05;;;;;;;21.15;3.88;;;4.10;99.90;;;4.40;86.62;100150.50;4986042;28;20212;-76
2022/04/04 08:22:42;;;;;;;4.40;1.33;;;4.10;99.90;;;4.17;84.37;100084.41;5003819;28;20214;-74
2022/04/04 08:25:12;;;;;;;20.40;5.07;;;4.20;99.90;;;4.51;84.36;100111.53;5002770;28;20726;-77
2022/04/04 08:27:43;;;;;;;10.13;2.60;;;4.30;99.90;;;4.44;82.94;100065.09;4988555;28;20211;-76
2022/04/04 08:30:14;;;;;;;11.40;2.20;;;4.30;99.90;;;4.34;82.45;100040.41;5005597;28;20223;-77
2022/04/04 08:32:43;;;;;;;16.45;4.03;;;;;;;4.81;84.03;100109.75;5002285;28;20203;-77
2022/04/04 08:35:13;;;;;;;12.63;2.45;;;4.60;99.90;;;4.85;81.78;100058.34;5008043;28;20231;-75
2022/04/04 08:37:43;;;;;;;14.48;2.70;;;4.60;99.90;;;4.88;80.55;100036.56;5007965;28;20239;-74
2022/04/04 08:40:14;;;;;;;22.35;3.95;;;4.80;99.90;;;5.01;80.34;100033.41;5007850;28;20211;-77
2022/04/04 08:42:43;;;;;;;21.38;3.90;;;;;;;5.21;79.24;100020.81;4998171;28;20203;-78
2022/04/04 08:45:12;;;;;;;27.38;4.85;;;5.10;99.90;;;5.20;76.79;99962.25;4984966;28;20232;-78
2022/04/04 08:47:41;;;;;;;32.80;5.85;;;5.10;99.90;;;5.41;75.81;99948.75;5001531;28;20223;-79
2022/04/04 08:50:11;;;;;;;27.13;4.82;;;;;;;5.39;75.63;99937.34;4985378;28;20703;-76
2022/04/04 08:52:39;;;;;;;12.73;2.42;;;;;;;5.49;74.86;99934.06;5003651;28;20569;-74
2022/04/04 08:55:08;;;;;;;13.00;2.42;;;5.60;99.90;;;5.77;75.93;99972.25;4989581;28;20238;-74
2022/04/04 08:57:36;;;;;;;9.85;1.95;;;;;;;5.43;75.35;99911.22;5006528;28;20217;-74
2022/04/04 09:00:06;;;;;;;11.70;2.22;;;;;;;5.69;75.42;99932.75;5006318;28;20223;-74
2022/04/04 09:02:34;;;;;;;14.48;2.75;;;;;;;5.69;73.94;99895.13;4999117;28;20258;-74
2022/04/04 09:05:07;;;;;;;13.43;2.60;;;5.90;99.90;;;6.13;73.24;99919.63;4997576;28;20234;-77
2022/04/04 09:08:05;;;;;;;13.75;2.67;;;6.00;99.90;;;5.97;71.15;99846.72;4998485;28;20215;-77
2022/04/04 09:10:40;;;;;;;12.27;2.40;;;6.10;99.90;;;6.13;71.17;99843.50;4995657;28;20209;-76
2022/04/04 09:13:16;;;;;;;16.10;2.95;;;6.20;99.90;;;6.25;71.20;99846.34;5005952;28;20204;-77
2022/04/04 09:15:57;;;;;;;13.45;2.55;;;6.40;99.90;;;6.40;72.17;99867.59;5003535;28;20200;-74
2022/04/04 09:18:41;;;;;;;17.70;3.28;;;6.40;99.90;;;6.98;72.84;99936.88;5005657;28;20228;-78
2022/04/04 09:21:19;;;;;;;14.00;2.60;;;6.70;99.90;;;7.32;66.93;99811.13;4996896;28;20214;-77
2022/04/04 09:23:50;;;;;;;15.73;3.17;;;;;;;7.32;64.71;99748.00;5008373;28;20238;-75
2022/04/04 09:26:40;;;;;;;18.48;3.47;;;7.00;99.90;;;7.03;63.90;99651.28;5003947;28;20216;-75
2022/04/04 09:29:21;;;;;;;14.25;2.65;;;7.10;99.90;;;7.32;61.91;99635.78;4998590;28;20696;-76
2022/04/04 09:32:05;;;;;;;7.68;1.55;;;7.10;99.90;;;6.92;60.27;99508.34;5001294;28;20204;-74
2022/04/04 09:35:01;;;;;;;9.10;1.75;;;7.20;99.90;;;7.61;60.79;99593.06;5003354;28;20231;-74
2022/04/04 09:37:32;;;;;;;16.88;3.08;;;7.40;99.90;;;7.29;65.37;99640.13;5002033;28;20213;-76
2022/04/04 09:40:20;;;;;;;13.75;2.63;;;7.40;99.90;;;7.31;64.21;99638.41;5003900;28;20236;-77
2022/04/04 09:42:51;;;;;;;10.15;1.92;;;7.40;99.90;;;7.55;61.47;99596.53;5003896;28;20216;-74
2022/04/04 09:45:26;;;;;;;13.20;2.45;;;7.30;99.90;;;7.07;60.33;99453.28;5007592;28;20255;-75
2022/04/04 09:48:08;;;;;;;13.77;2.55;;;7.40;99.90;;;7.14;60.10;99456.84;4995745;28;20208;-74
2022/04/04 09:50:49;;;;;;;16.42;3.05;;;7.30;99.90;;;7.46;59.79;99483.34;5003597;28;20222;-75
2022/04/04 09:53:22;;;;;;;19.25;3.42;;;7.50;99.90;;;7.44;60.12;99468.41;5003297;28;20208;-76
2022/04/04 09:56:03;;;;;;;21.63;3.83;;;7.60;99.90;;;7.53;59.10;99440.41;5002232;28;20210;-73
2022/04/04 09:58:34;;;;;;;18.60;3.47;;;;;;;7.50;58.63;99402.69;5006628;28;20235;-74
2022/04/04 10:01:03;;;;;;;17.98;3.17;;;;;;;7.68;58.99;99421.19;4989885;28;20211;-74
2022/04/04 10:03:32;;;;;;;17.45;3.15;;;;;;;7.92;58.95;99438.88;5010826;28;20199;-73
2022/04/04 10:06:05;;;;;;;19.45;3.58;;;8.00;99.90;;;8.15;58.47;99438.94;4961248;28;20204;-73
2022/04/04 10:08:37;;;;;;;19.65;3.47;;;6.30;99.90;;;8.12;57.67;99400.31;4980264;28;20219;-74
2022/04/04 10:11:09;;;;;;;21.10;4.47;;;8.10;99.90;;;7.54;57.28;99250.13;5009334;28;20263;-75
2022/04/04 10:13:37;;;;;;;18.23;3.28;;;;;;;8.03;57.14;99339.75;5011003;28;20223;-74
2022/04/04 10:16:09;;;;;;;15.45;2.80;;;;;;;8.43;57.49;99376.69;5008732;28;20211;-78
2022/04/04 10:18:38;;;;;;;18.30;3.33;;;;;;;8.57;56.35;99360.00;5007194;28;20235;-78
2022/04/04 10:21:08;;;;;;;25.67;4.47;;;8.60;99.90;;;8.56;55.99;99331.00;4989547;28;20211;-75
2022/04/04 10:23:41;;;;;;;23.50;4.07;;;8.70;99.90;;;8.74;55.92;99335.41;4990212;28;20231;-77
2022/04/04 10:26:12;;;;;;;14.73;2.67;;;;;;;8.59;54.90;99271.28;4992664;28;20223;-74
2022/04/04 10:28:43;;;;;;;12.45;2.38;;;8.60;99.90;;;8.71;54.87;99267.75;4993137;28;20219;-76
2022/04/04 10:31:12;;;;;;;6.70;1.38;;;;;;;8.86;54.84;99278.25;5010236;28;20592;-75
2022/04/04 10:33:40;;;;;;;4.30;0.95;;;;;;;8.58;53.77;99208.03;5014055;28;20228;-75
2022/04/04 10:36:20;;;;;;;10.02;1.77;;;8.30;99.90;;;8.57;53.39;99170.28;5013561;28;20192;-75
2022/04/04 10:38:55;;;;;;;8.63;1.65;;;9.00;99.90;;;9.11;54.44;99268.53;5012146;28;20719;-76
2022/04/04 10:41:28;;;;;;;6.63;1.38;;;8.90;99.90;;;8.58;53.07;99124.59;5010183;28;20204;-75
2022/04/04 10:43:57;;;;;;;16.80;3.10;;;9.10;99.90;;;8.87;52.81;99160.50;5009721;28;20223;-76